createdAt,value
2023-02-23T00:01:28.466Z,37.55
2023-02-23T00:03:57.649Z,36.82
2023-02-23T00:06:26.703Z,36.68
2023-02-23T00:08:53.563Z,37.26
2023-02-23T00:11:21.960Z,37.03
2023-02-23T00:13:50.445Z,37.09
2023-02-23T00:16:19.907Z,37.35
2023-02-23T00:18:50.790Z,37.22
2023-02-23T00:21:26.085Z,36.10
2023-02-23T00:23:57.869Z,36.08
2023-02-23T00:26:30.513Z,37.55
2023-02-23T00:28:58.225Z,36.10
2023-02-23T00:31:27.231Z,37.52
2023-02-23T00:33:56.955Z,35.94
2023-02-23T00:36:33.396Z,37.62
2023-02-23T00:39:11.210Z,37.59
2023-02-23T00:41:37.787Z,38.07
2023-02-23T00:44:04.422Z,38.61
2023-02-23T00:46:31.063Z,38.55
2023-02-23T00:48:58.952Z,39.38
2023-02-23T00:51:30.889Z,37.85
2023-02-23T00:53:59.389Z,38.11
2023-02-23T00:56:27.476Z,39.48
2023-02-23T00:58:54.871Z,39.48
2023-02-23T01:01:21.951Z,40.95
2023-02-23T01:03:49.114Z,40.53
2023-02-23T01:06:17.333Z,40.85
2023-02-23T01:08:49.056Z,40.88
2023-02-23T01:11:21.484Z,38.80
2023-02-23T01:13:51.498Z,40.94
2023-02-23T01:16:21.261Z,40.80
2023-02-23T01:18:48.921Z,40.68
2023-02-23T01:21:18.279Z,40.52
2023-02-23T01:23:45.826Z,40.02
2023-02-23T01:26:23.730Z,40.49
2023-02-23T01:28:55.484Z,41.98
2023-02-23T01:31:24.015Z,40.49
2023-02-23T01:33:59.953Z,41.66
2023-02-23T01:36:28.993Z,40.84
2023-02-23T01:38:57.151Z,41.71
2023-02-23T01:41:26.785Z,41.66
2023-02-23T01:44:05.049Z,41.79
2023-02-23T01:46:36.956Z,41.22
2023-02-23T01:49:04.448Z,40.55
2023-02-23T01:51:36.985Z,41.31
2023-02-23T01:54:14.261Z,41.14
2023-02-23T01:56:45.364Z,40.73
2023-02-23T01:59:15.233Z,40.18
2023-02-23T02:01:42.973Z,40.22
2023-02-23T02:04:16.738Z,40.96
2023-02-23T02:06:48.496Z,39.92
2023-02-23T02:09:17.821Z,41.84
2023-02-23T02:11:46.454Z,41.04
2023-02-23T02:14:14.917Z,40.12
2023-02-23T02:16:56.265Z,39.75
2023-02-23T02:19:48.704Z,40.53
2023-02-23T02:22:34.156Z,39.40
2023-02-23T02:25:40.854Z,38.02
2023-02-23T02:28:25.006Z,38.17
2023-02-23T02:31:16.190Z,38.23
2023-02-23T02:33:44.047Z,40.28
2023-02-23T02:36:41.639Z,38.71
2023-02-23T02:39:37.908Z,39.78
2023-02-23T02:42:21.659Z,38.02
2023-02-23T02:45:22.460Z,39.54
2023-02-23T02:48:19.898Z,38.23
2023-02-23T02:51:03.805Z,38.98
2023-02-23T02:53:56.524Z,41.33
2023-02-23T02:56:27.074Z,39.94
2023-02-23T02:58:54.490Z,41.35
2023-02-23T03:01:39.743Z,38.99
2023-02-23T03:04:42.071Z,38.48
2023-02-23T03:07:48.073Z,39.62
2023-02-23T03:10:47.792Z,39.99
2023-02-23T03:13:45.021Z,40.62
2023-02-23T03:16:57.917Z,38.95
2023-02-23T03:19:53.429Z,39.81
2023-02-23T03:23:03.621Z,38.42
2023-02-23T03:26:04.703Z,39.03
2023-02-23T03:29:01.237Z,38.49
2023-02-23T03:32:06.468Z,39.80
2023-02-23T03:35:13.105Z,39.33
2023-02-23T03:38:12.696Z,40.26
2023-02-23T03:41:02.516Z,39.06
2023-02-23T03:44:11.130Z,38.47
2023-02-23T03:47:00.102Z,41.28
2023-02-23T03:49:52.523Z,39.71
2023-02-23T03:52:46.534Z,38.50
2023-02-23T03:55:37.340Z,38.71
2023-02-23T03:58:29.726Z,38.51
2023-02-23T04:01:21.556Z,37.63
2023-02-23T04:04:11.589Z,36.48
2023-02-23T04:07:04.079Z,35.41
2023-02-23T04:09:50.722Z,35.87
2023-02-23T04:13:01.838Z,37.14
2023-02-23T04:15:36.539Z,34.98
2023-02-23T04:18:12.198Z,35.87
2023-02-23T04:20:38.751Z,35.76
2023-02-23T04:23:05.387Z,35.89
2023-02-23T04:25:32.205Z,37.15
2023-02-23T04:27:58.775Z,37.06
2023-02-23T04:30:25.861Z,37.04
2023-02-23T04:32:52.904Z,36.25
2023-02-23T04:35:19.730Z,36.25
2023-02-23T04:37:46.768Z,35.49
2023-02-23T04:40:13.603Z,34.93
2023-02-23T04:42:40.454Z,36.31
2023-02-23T04:45:08.077Z,35.75
2023-02-23T04:47:34.660Z,35.58
2023-02-23T04:50:01.443Z,34.83
2023-02-23T04:52:28.039Z,33.86
2023-02-23T04:54:54.557Z,34.02
2023-02-23T04:57:21.085Z,33.84
2023-02-23T04:59:47.951Z,33.58
2023-02-23T05:02:15.018Z,34.21
2023-02-23T05:04:41.581Z,34.39
2023-02-23T05:07:08.363Z,35.85
2023-02-23T05:09:35.076Z,35.13
2023-02-23T05:12:02.040Z,36.77
2023-02-23T05:14:28.567Z,38.09
2023-02-23T05:16:55.155Z,38.27
2023-02-23T05:19:22.112Z,36.39
2023-02-23T05:21:50.459Z,37.56
2023-02-23T05:24:17.917Z,37.32
2023-02-23T05:26:45.126Z,37.39
2023-02-23T05:29:12.383Z,38.49
2023-02-23T05:31:39.035Z,37.21
2023-02-23T05:34:05.684Z,36.26
2023-02-23T05:36:32.241Z,35.94
2023-02-23T05:38:58.773Z,36.30
2023-02-23T05:41:25.609Z,35.60
2023-02-23T05:43:53.502Z,35.81
2023-02-23T05:46:24.076Z,35.76
2023-02-23T05:48:55.195Z,36.99
2023-02-23T05:51:21.982Z,35.62
2023-02-23T05:53:48.820Z,36.02
2023-02-23T05:56:20.495Z,34.88
2023-02-23T05:58:52.267Z,35.13
2023-02-23T06:01:20.528Z,34.87
2023-02-23T06:03:48.635Z,34.91
2023-02-23T06:06:16.143Z,35.17
2023-02-23T06:08:42.801Z,35.38
2023-02-23T06:11:10.125Z,35.31
2023-02-23T06:13:36.653Z,34.33
2023-02-23T06:16:04.129Z,34.24
2023-02-23T06:18:30.797Z,33.56
2023-02-23T06:21:00.291Z,33.85
2023-02-23T06:23:28.396Z,36.13
2023-02-23T06:25:55.039Z,33.49
2023-02-23T06:28:21.845Z,33.58
2023-02-23T06:30:51.476Z,33.27
2023-02-23T06:33:18.589Z,34.16
2023-02-23T06:35:46.073Z,32.55
2023-02-23T06:38:12.760Z,32.78
2023-02-23T06:40:39.765Z,32.45
2023-02-23T06:43:06.421Z,30.71
2023-02-23T06:45:33.157Z,30.46
2023-02-23T06:48:00.858Z,31.53
2023-02-23T06:50:28.010Z,31.90
2023-02-23T06:52:56.623Z,30.31
2023-02-23T06:55:23.810Z,31.67
2023-02-23T06:57:51.871Z,31.24
2023-02-23T07:00:22.109Z,31.45
2023-02-23T07:02:48.697Z,30.95
2023-02-23T07:05:15.272Z,30.38
2023-02-23T07:07:41.853Z,29.90
2023-02-23T07:10:09.141Z,30.86
2023-02-23T07:12:35.785Z,31.22
2023-02-23T07:15:02.343Z,29.57
2023-02-23T07:17:28.932Z,30.45
2023-02-23T07:19:55.524Z,30.07
2023-02-23T07:22:22.513Z,28.96
2023-02-23T07:24:49.130Z,28.41
2023-02-23T07:27:15.711Z,30.04
2023-02-23T07:29:45.314Z,31.89
2023-02-23T07:32:11.976Z,33.77
2023-02-23T07:34:39.654Z,33.00
2023-02-23T07:37:06.296Z,33.87
2023-02-23T07:39:32.845Z,34.63
2023-02-23T07:41:59.433Z,34.00
2023-02-23T07:44:26.075Z,34.97
2023-02-23T07:46:53.149Z,35.64
2023-02-23T07:49:19.682Z,35.01
2023-02-23T07:51:47.066Z,35.47
2023-02-23T07:54:13.662Z,35.98
2023-02-23T07:56:40.308Z,35.61
2023-02-23T07:59:06.828Z,34.89
2023-02-23T08:01:33.900Z,35.31
2023-02-23T08:04:00.860Z,36.09
2023-02-23T08:06:27.506Z,35.59
2023-02-23T08:08:54.118Z,34.39
2023-02-23T08:11:21.012Z,35.40
2023-02-23T08:13:47.660Z,34.84
2023-02-23T08:16:14.799Z,35.37
2023-02-23T08:18:41.438Z,32.03
2023-02-23T08:21:08.123Z,33.89
2023-02-23T08:23:35.562Z,34.78
2023-02-23T08:26:04.110Z,35.10
2023-02-23T08:28:30.849Z,32.82
2023-02-23T08:30:59.403Z,33.91
2023-02-23T08:33:26.428Z,34.63
2023-02-23T08:35:53.663Z,33.93
2023-02-23T08:38:20.355Z,33.71
2023-02-23T08:40:47.007Z,33.99
2023-02-23T08:43:13.592Z,32.69
2023-02-23T08:45:40.258Z,32.86
2023-02-23T08:48:08.779Z,34.06
2023-02-23T08:50:35.638Z,34.49
2023-02-23T08:53:02.337Z,34.49
2023-02-23T08:55:28.943Z,33.95
2023-02-23T08:57:55.461Z,33.23
2023-02-23T09:00:22.504Z,33.17
2023-02-23T09:02:49.126Z,32.53
2023-02-23T09:05:16.515Z,33.26
2023-02-23T09:07:45.185Z,30.80
2023-02-23T09:10:15.009Z,29.78
2023-02-23T09:12:41.643Z,29.17
2023-02-23T09:15:08.987Z,27.86
2023-02-23T09:17:35.623Z,28.79
2023-02-23T09:20:02.234Z,29.77
2023-02-23T09:22:28.891Z,28.94
2023-02-23T09:24:55.442Z,28.26
2023-02-23T09:27:21.973Z,27.99
2023-02-23T09:29:49.610Z,28.07
2023-02-23T09:32:16.283Z,27.96
2023-02-23T09:34:42.878Z,27.03
2023-02-23T09:37:09.470Z,25.17
2023-02-23T09:39:38.839Z,24.29
2023-02-23T09:42:59.000Z,23.71
2023-02-23T09:45:39.729Z,23.23
2023-02-23T09:48:11.984Z,23.27
2023-02-23T09:50:41.919Z,22.57
2023-02-23T09:53:34.664Z,22.54
2023-02-23T09:56:21.782Z,21.80
2023-02-23T09:58:48.428Z,22.38
2023-02-23T10:01:56.743Z,21.74
2023-02-23T10:04:32.258Z,22.41
2023-02-23T10:07:09.106Z,22.33
2023-02-23T10:10:00.069Z,23.34
2023-02-23T10:12:38.079Z,22.95
2023-02-23T10:15:34.842Z,22.90
2023-02-23T10:18:10.474Z,23.17
2023-02-23T10:20:58.233Z,22.38
2023-02-23T10:23:38.711Z,22.84
2023-02-23T10:26:08.795Z,21.96
2023-02-23T10:28:37.335Z,22.48
2023-02-23T10:31:27.991Z,21.54
2023-02-23T10:33:59.993Z,21.28
2023-02-23T10:36:37.194Z,21.33
2023-02-23T10:39:09.269Z,21.78
2023-02-23T10:41:38.252Z,21.64
2023-02-23T10:44:17.150Z,20.37
2023-02-23T10:46:49.836Z,19.98
2023-02-23T10:49:23.100Z,20.74
2023-02-23T10:51:52.940Z,20.15
2023-02-23T10:54:34.774Z,20.18
2023-02-23T10:57:07.864Z,19.20
2023-02-23T10:59:35.076Z,18.85
2023-02-23T11:02:24.506Z,18.02
2023-02-23T11:04:56.874Z,18.12
2023-02-23T11:07:32.158Z,18.42
2023-02-23T11:10:00.271Z,18.23
2023-02-23T11:12:41.800Z,18.09
2023-02-23T11:15:48.212Z,18.30
2023-02-23T11:18:23.279Z,18.04
2023-02-23T11:20:51.552Z,17.78
2023-02-23T11:23:31.848Z,17.77
2023-02-23T11:26:06.125Z,18.58
2023-02-23T11:28:37.870Z,18.96
2023-02-23T11:31:19.433Z,16.87
2023-02-23T11:33:48.357Z,16.41
2023-02-23T11:36:24.156Z,16.73
2023-02-23T11:39:05.100Z,16.40
2023-02-23T11:41:35.120Z,16.42
2023-02-23T11:44:06.042Z,14.89
2023-02-23T11:46:39.191Z,14.16
2023-02-23T11:49:19.323Z,13.54
2023-02-23T11:51:51.931Z,14.02
2023-02-23T11:54:27.777Z,13.96
2023-02-23T11:56:58.589Z,14.41
2023-02-23T11:59:32.311Z,14.95
2023-02-23T12:02:25.356Z,15.24
2023-02-23T12:05:05.150Z,16.21
2023-02-23T12:07:46.334Z,15.96
2023-02-23T12:10:31.624Z,16.98
2023-02-23T12:13:30.208Z,16.20
2023-02-23T12:16:12.626Z,16.64
2023-02-23T12:18:46.634Z,16.21
2023-02-23T12:21:35.806Z,15.90
2023-02-23T12:24:08.397Z,16.38
2023-02-23T12:26:55.290Z,16.30
2023-02-23T12:29:35.725Z,16.11
2023-02-23T12:32:20.443Z,16.61
2023-02-23T12:34:56.624Z,16.32
2023-02-23T12:37:24.838Z,16.66
2023-02-23T12:39:58.516Z,16.29
2023-02-23T12:42:50.952Z,16.74
2023-02-23T12:45:47.358Z,16.37
2023-02-23T12:48:23.566Z,15.88
2023-02-23T12:50:53.741Z,16.13
2023-02-23T12:53:29.004Z,15.92
2023-02-23T12:56:33.996Z,16.05
2023-02-23T12:59:25.257Z,15.39
2023-02-23T13:02:18.694Z,15.51
2023-02-23T13:05:04.625Z,15.81
2023-02-23T13:07:48.762Z,14.97
2023-02-23T13:10:39.132Z,16.19
2023-02-23T13:13:16.321Z,16.48
2023-02-23T13:16:00.017Z,14.78
2023-02-23T13:18:57.658Z,14.35
2023-02-23T13:21:36.915Z,14.42
2023-02-23T13:24:14.340Z,13.78
2023-02-23T13:26:52.030Z,13.37
2023-02-23T13:29:34.142Z,13.67
2023-02-23T13:32:04.794Z,13.55
2023-02-23T13:34:45.775Z,12.98
2023-02-23T13:37:20.480Z,13.38
2023-02-23T13:40:00.055Z,13.51
2023-02-23T13:42:31.071Z,13.14
2023-02-23T13:45:16.841Z,13.65
2023-02-23T13:48:05.042Z,14.87
2023-02-23T13:50:57.994Z,13.78
2023-02-23T13:53:33.912Z,14.49
2023-02-23T13:56:07.125Z,15.04
2023-02-23T13:58:35.632Z,15.43
2023-02-23T14:01:11.042Z,14.94
2023-02-23T14:04:02.971Z,14.32
2023-02-23T14:06:34.794Z,14.28
2023-02-23T14:09:11.545Z,14.72
2023-02-23T14:11:51.042Z,14.39
2023-02-23T14:14:33.197Z,14.64
2023-02-23T14:17:34.838Z,13.43
2023-02-23T14:20:13.318Z,12.02
2023-02-23T14:23:27.510Z,13.11
2023-02-23T14:26:32.466Z,13.50
2023-02-23T14:29:17.435Z,12.94
2023-02-23T14:32:03.702Z,12.59
2023-02-23T14:34:57.017Z,13.14
2023-02-23T14:37:36.957Z,14.24
2023-02-23T14:40:30.609Z,15.49
2023-02-23T14:43:01.061Z,16.95
2023-02-23T14:45:38.694Z,18.00
2023-02-23T14:48:12.564Z,18.03
2023-02-23T14:50:41.316Z,17.60
2023-02-23T14:53:25.496Z,17.59
2023-02-23T14:55:51.996Z,18.11
2023-02-23T14:58:27.072Z,19.76
2023-02-23T15:00:53.800Z,20.23
2023-02-23T15:03:22.327Z,20.79
2023-02-23T15:05:56.889Z,20.77
2023-02-23T15:08:27.209Z,20.69
2023-02-23T15:11:14.226Z,21.85
2023-02-23T15:13:47.727Z,22.94
2023-02-23T15:16:34.889Z,22.84
2023-02-23T15:19:05.255Z,22.78
2023-02-23T15:21:32.124Z,21.09
2023-02-23T15:24:11.538Z,16.76
2023-02-23T15:26:41.307Z,12.14
2023-02-23T15:29:10.644Z,9.55
2023-02-23T15:31:40.980Z,7.76
2023-02-23T15:34:11.514Z,6.00
2023-02-23T15:36:41.188Z,5.42
2023-02-23T15:39:21.669Z,5.13
2023-02-23T15:41:52.779Z,4.93
2023-02-23T15:44:32.181Z,5.16
2023-02-23T15:47:13.401Z,5.26
2023-02-23T15:49:41.973Z,5.22
2023-02-23T15:52:21.983Z,5.05
2023-02-23T15:54:59.963Z,5.17
2023-02-23T15:57:44.529Z,4.23
2023-02-23T16:00:27.219Z,4.19
2023-02-23T16:02:56.970Z,3.65
2023-02-23T16:05:25.721Z,3.48
2023-02-23T16:08:06.794Z,3.90
2023-02-23T16:10:44.892Z,3.76
2023-02-23T16:13:15.109Z,3.70
2023-02-23T16:15:42.458Z,4.36
2023-02-23T16:18:20.344Z,4.16
2023-02-23T16:20:57.436Z,4.29
2023-02-23T16:23:34.062Z,4.81
2023-02-23T16:26:12.824Z,4.92
2023-02-23T16:28:45.488Z,4.66
2023-02-23T16:31:19.710Z,4.72
2023-02-23T16:33:56.669Z,4.72
2023-02-23T16:36:36.634Z,5.67
2023-02-23T16:39:07.201Z,5.42
2023-02-23T16:41:35.122Z,4.69
2023-02-23T16:44:05.191Z,4.23
2023-02-23T16:46:57.793Z,4.48
2023-02-23T16:49:24.820Z,4.41
2023-02-23T16:51:51.793Z,4.40
2023-02-23T16:54:18.454Z,4.40
2023-02-23T16:56:47.249Z,4.28
2023-02-23T16:59:17.991Z,4.69
2023-02-23T17:01:49.429Z,4.25
2023-02-23T17:04:19.404Z,4.03
2023-02-23T17:06:48.463Z,4.30
2023-02-23T17:09:15.051Z,4.91
2023-02-23T17:11:43.826Z,4.49
2023-02-23T17:14:27.228Z,4.83
2023-02-23T17:16:54.022Z,4.88
2023-02-23T17:19:22.812Z,4.39
2023-02-23T17:21:50.431Z,4.04
2023-02-23T17:24:17.077Z,3.99
2023-02-23T17:26:43.736Z,4.22
2023-02-23T17:29:10.280Z,4.06
2023-02-23T17:31:38.328Z,4.30
2023-02-23T17:34:05.070Z,4.23
2023-02-23T17:36:31.618Z,4.37
2023-02-23T17:38:58.917Z,3.95
2023-02-23T17:41:26.504Z,3.94
2023-02-23T17:43:53.040Z,4.27
2023-02-23T17:46:19.682Z,4.29
2023-02-23T17:48:48.984Z,4.12
2023-02-23T17:51:16.952Z,3.97
2023-02-23T17:53:44.048Z,4.06
2023-02-23T17:56:11.216Z,4.27
2023-02-23T17:58:40.307Z,4.04
2023-02-23T18:01:07.611Z,3.87
2023-02-23T18:03:37.455Z,4.37
2023-02-23T18:06:08.279Z,3.78
2023-02-23T18:08:35.302Z,3.96
2023-02-23T18:11:02.448Z,3.75
2023-02-23T18:13:33.858Z,4.02
2023-02-23T18:16:06.602Z,3.80
2023-02-23T18:18:34.435Z,4.06
2023-02-23T18:21:01.071Z,3.96
2023-02-23T18:23:32.504Z,4.07
2023-02-23T18:26:10.673Z,4.53
2023-02-23T18:28:38.636Z,4.58
2023-02-23T18:31:05.691Z,4.65
2023-02-23T18:33:35.859Z,4.25
2023-02-23T18:36:03.756Z,4.96
2023-02-23T18:38:30.332Z,4.74
2023-02-23T18:40:57.281Z,4.80
2023-02-23T18:43:24.037Z,5.56
2023-02-23T18:45:51.310Z,5.67
2023-02-23T18:48:17.972Z,5.24
2023-02-23T18:50:44.899Z,6.55
2023-02-23T18:53:11.620Z,6.52
2023-02-23T18:55:38.559Z,5.05
2023-02-23T18:58:05.767Z,4.45
2023-02-23T19:00:42.479Z,3.84
2023-02-23T19:03:10.370Z,3.81
2023-02-23T19:05:37.813Z,3.66
2023-02-23T19:08:08.591Z,3.71
2023-02-23T19:10:37.840Z,3.95
2023-02-23T19:13:08.706Z,3.86
2023-02-23T19:15:38.421Z,3.27
2023-02-23T19:18:05.077Z,2.86
2023-02-23T19:20:35.680Z,3.41
2023-02-23T19:23:03.342Z,3.21
2023-02-23T19:25:33.000Z,2.54
2023-02-23T19:27:59.516Z,2.63
2023-02-23T19:30:26.026Z,3.15
2023-02-23T19:32:52.711Z,2.97
2023-02-23T19:35:20.369Z,2.79
2023-02-23T19:37:52.342Z,2.84
2023-02-23T19:40:22.675Z,3.21
2023-02-23T19:42:52.693Z,2.89
2023-02-23T19:45:19.662Z,3.19
2023-02-23T19:47:48.340Z,3.71
2023-02-23T19:50:18.738Z,3.58
2023-02-23T19:52:48.042Z,3.49
2023-02-23T19:55:15.307Z,4.08
2023-02-23T19:57:41.982Z,7.99
2023-02-23T20:00:11.438Z,10.66
2023-02-23T20:02:42.663Z,9.09
2023-02-23T20:05:15.357Z,6.14
2023-02-23T20:07:43.192Z,4.48
2023-02-23T20:10:13.732Z,3.88
2023-02-23T20:12:40.254Z,3.66
2023-02-23T20:15:07.468Z,3.26
2023-02-23T20:17:35.321Z,3.47
2023-02-23T20:20:05.766Z,3.23
2023-02-23T20:22:33.349Z,3.73
2023-02-23T20:25:00.351Z,3.81
2023-02-23T20:27:29.970Z,3.82
2023-02-23T20:29:58.346Z,3.82
2023-02-23T20:32:25.088Z,4.18
2023-02-23T20:34:51.795Z,4.09
2023-02-23T20:37:22.086Z,4.50
2023-02-23T20:39:48.626Z,5.14
2023-02-23T20:42:15.159Z,5.12
2023-02-23T20:44:41.709Z,5.49
2023-02-23T20:47:09.831Z,5.55
2023-02-23T20:49:37.505Z,5.22
2023-02-23T20:52:05.048Z,5.49
2023-02-23T20:54:31.694Z,5.38
2023-02-23T20:57:07.238Z,5.07
2023-02-23T20:59:37.934Z,5.09
2023-02-23T21:02:05.986Z,5.14
2023-02-23T21:04:35.813Z,4.95
2023-02-23T21:07:06.741Z,5.21
2023-02-23T21:09:33.326Z,4.80
2023-02-23T21:12:00.062Z,4.91
2023-02-23T21:14:26.721Z,5.15
2023-02-23T21:16:53.259Z,5.41
2023-02-23T21:19:22.524Z,5.41
2023-02-23T21:21:52.412Z,5.98
2023-02-23T21:24:19.767Z,6.02
2023-02-23T21:26:46.579Z,6.34
2023-02-23T21:29:14.626Z,6.52
2023-02-23T21:31:43.538Z,6.54
2023-02-23T21:34:11.082Z,6.88
2023-02-23T21:36:38.383Z,6.55
2023-02-23T21:39:06.612Z,6.12
2023-02-23T21:41:34.062Z,6.34
2023-02-23T21:44:01.925Z,6.07
2023-02-23T21:46:28.983Z,6.25
2023-02-23T21:48:55.609Z,6.49
2023-02-23T21:51:22.743Z,6.58
2023-02-23T21:53:49.511Z,6.42
2023-02-23T21:56:21.123Z,6.55
2023-02-23T21:58:53.368Z,6.57
2023-02-23T22:01:23.494Z,6.58
2023-02-23T22:03:51.505Z,6.52
2023-02-23T22:06:21.187Z,5.95
2023-02-23T22:08:51.342Z,6.29
2023-02-23T22:11:21.504Z,6.08
2023-02-23T22:13:50.963Z,6.06
2023-02-23T22:16:19.486Z,6.72
2023-02-23T22:18:46.610Z,6.72
2023-02-23T22:21:13.520Z,6.83
2023-02-23T22:23:41.724Z,6.86
2023-02-23T22:26:11.363Z,7.05
2023-02-23T22:28:38.331Z,7.42
2023-02-23T22:31:07.443Z,7.06
2023-02-23T22:33:39.576Z,7.19
2023-02-23T22:36:08.163Z,7.15
2023-02-23T22:38:35.301Z,6.86
2023-02-23T22:41:02.373Z,6.76
2023-02-23T22:43:30.622Z,6.90
2023-02-23T22:45:58.000Z,6.51
2023-02-23T22:48:24.793Z,6.94
2023-02-23T22:50:51.455Z,6.90
2023-02-23T22:53:18.128Z,7.10
2023-02-23T22:55:51.981Z,6.90
2023-02-23T22:58:23.148Z,7.36
2023-02-23T23:01:04.135Z,7.27
2023-02-23T23:03:34.758Z,7.13
2023-02-23T23:06:04.329Z,7.01
2023-02-23T23:08:36.999Z,7.47
2023-02-23T23:11:09.570Z,7.28
2023-02-23T23:13:43.225Z,6.95
2023-02-23T23:16:16.973Z,6.72
2023-02-23T23:18:57.277Z,6.48
2023-02-23T23:21:26.265Z,6.62
2023-02-23T23:23:58.979Z,6.64
2023-02-23T23:26:27.879Z,6.28
2023-02-23T23:28:57.903Z,5.92
2023-02-23T23:31:30.139Z,6.13
2023-02-23T23:34:02.770Z,5.75
2023-02-23T23:36:37.300Z,6.00
2023-02-23T23:39:04.623Z,5.46
2023-02-23T23:41:37.919Z,5.92
2023-02-23T23:44:05.295Z,5.86
2023-02-23T23:46:38.274Z,5.71
2023-02-23T23:49:08.649Z,5.88
2023-02-23T23:51:39.129Z,5.54
2023-02-23T23:54:08.101Z,5.20
2023-02-23T23:56:38.990Z,5.03
2023-02-23T23:59:12.341Z,5.28
